createdAt,value
2019-01-14T00:00:32.883Z,36.90
2019-01-14T00:03:04.338Z,44.25
2019-01-14T00:05:35.559Z,43.70
2019-01-14T00:08:07.036Z,39.35
2019-01-14T00:10:38.162Z,29.95
2019-01-14T00:13:09.621Z,29.75
2019-01-14T00:15:41.066Z,28.98
2019-01-14T00:18:12.398Z,32.33
2019-01-14T00:20:43.734Z,24.32
2019-01-14T00:23:14.790Z,20.57
2019-01-14T00:25:46.226Z,21.23
2019-01-14T00:28:17.414Z,22.13
2019-01-14T00:30:48.629Z,19.87
2019-01-14T00:33:19.711Z,19.98
2019-01-14T00:35:51.044Z,20.10
2019-01-14T00:38:22.355Z,19.75
2019-01-14T00:40:53.703Z,20.30
2019-01-14T00:43:24.770Z,19.40
2019-01-14T00:45:56.114Z,23.90
2019-01-14T00:48:27.549Z,28.27
2019-01-14T00:50:58.873Z,28.95
2019-01-14T00:53:30.376Z,26.93
2019-01-14T00:56:01.743Z,25.88
2019-01-14T00:58:32.966Z,30.50
2019-01-14T01:01:04.484Z,27.73
2019-01-14T01:03:35.891Z,26.93
2019-01-14T01:06:07.417Z,24.50
2019-01-14T01:08:38.978Z,27.30
2019-01-14T01:11:10.539Z,29.98
2019-01-14T01:13:41.624Z,29.57
2019-01-14T01:16:13.298Z,30.62
2019-01-14T01:18:44.579Z,29.75
2019-01-14T01:21:15.881Z,26.42
2019-01-14T01:23:47.233Z,28.05
2019-01-14T01:26:18.689Z,28.35
2019-01-14T01:28:49.749Z,29.80
2019-01-14T01:31:21.191Z,23.65
2019-01-14T01:33:52.850Z,32.85
2019-01-14T01:36:24.215Z,24.47
2019-01-14T01:38:55.586Z,30.77
2019-01-14T01:41:26.968Z,28.73
2019-01-14T01:43:58.192Z,31.60
2019-01-14T01:46:29.575Z,31.27
2019-01-14T01:49:00.911Z,27.35
2019-01-14T01:51:32.468Z,35.20
2019-01-14T01:54:03.786Z,29.00
2019-01-14T01:56:35.057Z,31.20
2019-01-14T01:59:06.459Z,31.25
2019-01-14T02:01:38.055Z,30.90
2019-01-14T02:04:09.365Z,29.40
2019-01-14T02:06:40.793Z,24.02
2019-01-14T02:09:11.882Z,25.37
2019-01-14T02:11:43.212Z,24.98
2019-01-14T02:14:14.342Z,24.92
2019-01-14T02:16:46.203Z,28.42
2019-01-14T02:19:17.460Z,30.75
2019-01-14T02:21:48.900Z,25.15
2019-01-14T02:24:20.251Z,28.10
2019-01-14T02:26:51.548Z,28.02
2019-01-14T02:29:22.932Z,31.50
2019-01-14T02:31:54.009Z,28.20
2019-01-14T02:34:25.176Z,28.38
2019-01-14T02:36:56.383Z,28.85
2019-01-14T02:39:27.753Z,24.43
2019-01-14T02:41:59.052Z,25.75
2019-01-14T02:44:30.284Z,22.98
2019-01-14T02:47:01.720Z,24.67
2019-01-14T02:49:33.047Z,24.65
2019-01-14T02:52:04.404Z,25.17
2019-01-14T02:54:35.823Z,20.95
2019-01-14T02:57:07.348Z,21.75
2019-01-14T02:59:38.816Z,26.45
2019-01-14T03:02:10.282Z,26.52
2019-01-14T03:04:41.608Z,25.60
2019-01-14T03:07:12.904Z,26.87
2019-01-14T03:09:43.979Z,27.65
2019-01-14T03:12:16.164Z,27.90
2019-01-14T03:14:47.280Z,28.75
2019-01-14T03:17:18.609Z,21.40
2019-01-14T03:19:49.765Z,28.12
2019-01-14T03:22:21.094Z,28.35
2019-01-14T03:24:52.152Z,27.87
2019-01-14T03:27:23.688Z,29.87
2019-01-14T03:29:54.800Z,28.52
2019-01-14T03:32:26.024Z,29.15
2019-01-14T03:34:57.279Z,28.98
2019-01-14T03:37:28.569Z,31.57
2019-01-14T03:39:59.816Z,30.25
2019-01-14T03:42:31.256Z,27.05
2019-01-14T03:45:02.356Z,24.47
2019-01-14T03:47:33.522Z,24.10
2019-01-14T03:50:06.245Z,23.98
2019-01-14T03:52:37.366Z,21.00
2019-01-14T03:55:09.016Z,19.37
2019-01-14T03:57:40.521Z,18.52
2019-01-14T04:00:13.446Z,18.05
2019-01-14T04:02:45.041Z,18.25
2019-01-14T04:05:16.273Z,15.70
2019-01-14T04:07:47.738Z,15.72
2019-01-14T04:10:19.282Z,14.47
2019-01-14T04:12:50.540Z,15.83
2019-01-14T04:15:21.893Z,15.28
2019-01-14T04:17:53.304Z,15.40
2019-01-14T04:20:24.566Z,14.58
2019-01-14T04:22:55.898Z,15.83
2019-01-14T04:25:27.209Z,16.23
2019-01-14T04:27:58.458Z,15.55
2019-01-14T04:30:29.730Z,14.28
2019-01-14T04:33:01.242Z,16.37
2019-01-14T04:35:32.625Z,17.37
2019-01-14T04:38:04.013Z,15.40
2019-01-14T04:40:35.409Z,16.40
2019-01-14T04:43:06.879Z,16.20
2019-01-14T04:45:38.211Z,16.52
2019-01-14T04:48:09.802Z,18.00
2019-01-14T04:50:41.111Z,17.17
2019-01-14T04:53:12.573Z,18.00
2019-01-14T04:55:43.804Z,18.37
2019-01-14T04:58:15.243Z,18.20
2019-01-14T05:00:46.555Z,18.82
2019-01-14T05:03:17.656Z,18.05
2019-01-14T05:05:49.052Z,21.00
2019-01-14T05:08:20.585Z,20.05
2019-01-14T05:10:52.042Z,19.05
2019-01-14T05:13:23.506Z,20.60
2019-01-14T05:15:54.576Z,21.10
2019-01-14T05:18:26.001Z,22.80
2019-01-14T05:20:57.486Z,22.70
2019-01-14T05:23:28.923Z,21.80
2019-01-14T05:26:00.260Z,21.50
2019-01-14T05:28:31.826Z,20.55
2019-01-14T05:31:03.400Z,21.93
2019-01-14T05:33:34.707Z,21.25
2019-01-14T05:36:06.111Z,23.18
2019-01-14T05:38:37.588Z,22.58
2019-01-14T05:41:08.950Z,23.42
2019-01-14T05:43:40.185Z,24.18
2019-01-14T05:46:11.534Z,26.87
2019-01-14T05:48:42.904Z,25.88
2019-01-14T05:51:14.071Z,23.90
2019-01-14T05:53:45.732Z,30.30
2019-01-14T05:56:17.234Z,26.75
2019-01-14T05:58:48.414Z,36.30
2019-01-14T06:01:19.788Z,31.68
2019-01-14T06:03:50.874Z,29.30
2019-01-14T06:06:22.076Z,30.32
2019-01-14T06:08:53.467Z,27.50
2019-01-14T06:11:24.687Z,27.50
2019-01-14T06:13:55.858Z,30.92
2019-01-14T06:16:26.952Z,29.45
2019-01-14T06:18:58.044Z,28.57
2019-01-14T06:21:29.141Z,27.32
2019-01-14T06:24:00.535Z,35.17
2019-01-14T06:26:32.035Z,32.78
2019-01-14T06:29:03.268Z,34.63
2019-01-14T06:31:34.513Z,26.95
2019-01-14T06:34:06.190Z,28.70
2019-01-14T06:36:37.596Z,24.37
2019-01-14T06:39:11.086Z,21.70
2019-01-14T06:41:42.530Z,24.87
2019-01-14T06:44:13.858Z,49.98
2019-01-14T06:46:45.215Z,104.90
2019-01-14T06:49:16.602Z,44.27
2019-01-14T06:51:47.968Z,104.78
2019-01-14T06:54:19.373Z,60.58
2019-01-14T06:56:50.481Z,42.73
2019-01-14T06:59:22.809Z,27.50
2019-01-14T07:01:54.179Z,28.17
2019-01-14T07:04:25.444Z,26.27
2019-01-14T07:06:56.516Z,28.15
2019-01-14T07:09:27.617Z,25.92
2019-01-14T07:11:59.100Z,22.65
2019-01-14T07:14:30.495Z,23.02
2019-01-14T07:17:01.552Z,23.90
2019-01-14T07:19:32.929Z,24.18
2019-01-14T07:22:04.395Z,24.40
2019-01-14T07:24:35.840Z,23.20
2019-01-14T07:27:06.931Z,22.25
2019-01-14T07:29:38.248Z,21.05
2019-01-14T07:32:09.682Z,20.30
2019-01-14T07:34:42.074Z,22.07
2019-01-14T07:37:13.143Z,22.70
2019-01-14T07:39:44.306Z,24.75
2019-01-14T07:42:15.544Z,26.05
2019-01-14T07:44:47.067Z,29.42
2019-01-14T07:47:18.105Z,29.18
2019-01-14T07:49:49.700Z,32.42
2019-01-14T07:52:21.009Z,35.95
2019-01-14T07:54:52.479Z,36.13
2019-01-14T07:57:23.748Z,38.60
2019-01-14T07:59:55.379Z,41.35
2019-01-14T08:02:26.874Z,36.88
2019-01-14T08:04:58.017Z,30.68
2019-01-14T08:07:29.068Z,32.63
2019-01-14T08:10:00.226Z,28.40
2019-01-14T08:12:31.487Z,27.07
2019-01-14T08:15:02.828Z,28.52
2019-01-14T08:17:34.338Z,27.13
2019-01-14T08:20:06.713Z,27.52
2019-01-14T08:22:37.941Z,30.45
2019-01-14T08:25:10.644Z,31.87
2019-01-14T08:27:41.825Z,26.23
2019-01-14T08:30:16.031Z,23.40
2019-01-14T08:32:47.579Z,24.25
2019-01-14T08:35:19.089Z,22.45
2019-01-14T08:37:51.046Z,23.83
2019-01-14T08:40:22.395Z,22.27
2019-01-14T08:42:53.683Z,32.40
2019-01-14T08:45:25.120Z,28.07
2019-01-14T08:47:56.446Z,26.25
2019-01-14T08:50:28.088Z,39.98
2019-01-14T08:52:59.351Z,40.28
2019-01-14T08:55:30.849Z,44.42
2019-01-14T08:58:01.920Z,47.50
2019-01-14T09:00:33.327Z,49.35
2019-01-14T09:03:04.926Z,48.30
2019-01-14T09:05:36.247Z,43.68
2019-01-14T09:08:07.630Z,42.75
2019-01-14T09:10:39.064Z,45.52
2019-01-14T09:13:10.446Z,43.80
2019-01-14T09:15:41.825Z,39.18
2019-01-14T09:18:13.216Z,42.88
2019-01-14T09:20:44.611Z,40.60
2019-01-14T09:23:16.038Z,50.03
2019-01-14T09:25:53.639Z,44.20
2019-01-14T09:28:20.491Z,50.23
2019-01-14T09:30:53.174Z,42.98
2019-01-14T09:33:24.651Z,47.45
2019-01-14T09:35:56.307Z,45.43
2019-01-14T09:38:27.793Z,47.33
2019-01-14T09:40:59.358Z,48.35
2019-01-14T09:43:30.839Z,56.35
2019-01-14T09:46:02.234Z,55.52
2019-01-14T09:48:33.693Z,54.77
2019-01-14T09:51:05.210Z,54.60
2019-01-14T09:53:36.706Z,58.80
2019-01-14T09:56:08.095Z,63.23
2019-01-14T09:58:39.165Z,81.00
2019-01-14T10:01:10.529Z,59.58
2019-01-14T10:03:42.138Z,54.70
2019-01-14T10:06:13.582Z,50.05
2019-01-14T10:08:45.205Z,59.23
2019-01-14T10:11:16.668Z,54.90
2019-01-14T10:13:47.960Z,55.70
2019-01-14T10:16:19.603Z,44.23
2019-01-14T10:18:50.976Z,43.58
2019-01-14T10:21:22.379Z,31.20
2019-01-14T10:23:53.698Z,30.97
2019-01-14T10:26:26.245Z,23.32
2019-01-14T10:28:57.939Z,7.22
2019-01-14T10:31:29.522Z,4.42
2019-01-14T10:34:00.954Z,7.78
2019-01-14T10:36:32.194Z,6.72
2019-01-14T10:39:05.329Z,3.98
2019-01-14T10:41:36.987Z,3.60
2019-01-14T10:44:08.360Z,3.90
2019-01-14T10:46:39.869Z,2.87
2019-01-14T10:49:11.260Z,2.80
2019-01-14T10:51:42.720Z,3.08
2019-01-14T10:54:14.008Z,3.70
2019-01-14T10:56:45.571Z,4.70
2019-01-14T10:59:16.785Z,4.50
2019-01-14T11:01:48.398Z,5.87
2019-01-14T11:04:19.571Z,6.60
2019-01-14T11:06:51.204Z,4.42
2019-01-14T11:09:22.522Z,4.67
2019-01-14T11:11:54.138Z,6.40
2019-01-14T11:14:25.741Z,2.85
2019-01-14T11:16:57.180Z,39.45
2019-01-14T11:19:28.592Z,41.20
2019-01-14T11:21:59.832Z,44.40
2019-01-14T11:24:49.812Z,45.48
2019-01-14T11:27:21.831Z,45.33
2019-01-14T11:29:53.871Z,42.88
2019-01-14T11:32:25.401Z,40.73
2019-01-14T11:34:56.641Z,43.28
2019-01-14T11:37:27.885Z,43.83
2019-01-14T11:39:58.999Z,48.63
2019-01-14T11:42:30.142Z,45.80
2019-01-14T11:45:01.264Z,41.90
2019-01-14T11:47:32.751Z,34.85
2019-01-14T11:50:05.358Z,24.63
2019-01-14T11:52:36.516Z,22.25
2019-01-14T11:55:08.247Z,19.62
2019-01-14T11:57:39.520Z,22.87
2019-01-14T12:00:23.199Z,30.97
2019-01-14T12:02:54.676Z,32.63
2019-01-14T12:05:26.137Z,41.48
2019-01-14T12:07:57.464Z,41.77
2019-01-14T12:10:28.833Z,43.80
2019-01-14T12:13:00.438Z,41.20
2019-01-14T12:15:31.930Z,41.13
2019-01-14T12:18:03.424Z,42.85
2019-01-14T12:20:34.627Z,42.55
2019-01-14T12:23:06.655Z,42.27
2019-01-14T12:25:38.164Z,42.25
2019-01-14T12:28:09.655Z,41.05
2019-01-14T12:30:42.700Z,43.50
2019-01-14T12:33:14.082Z,35.35
2019-01-14T12:35:45.405Z,30.15
2019-01-14T12:38:16.695Z,18.25
2019-01-14T12:40:48.043Z,19.00
2019-01-14T12:43:20.228Z,24.40
2019-01-14T12:45:52.328Z,22.35
2019-01-14T12:48:24.035Z,22.77
2019-01-14T12:50:55.536Z,17.82
2019-01-14T12:53:26.947Z,15.72
2019-01-14T12:55:58.307Z,11.75
2019-01-14T12:58:29.760Z,13.98
2019-01-14T13:01:00.972Z,18.82
2019-01-14T13:03:32.417Z,17.95
2019-01-14T13:06:03.952Z,15.68
2019-01-14T13:08:35.432Z,24.07
2019-01-14T13:11:07.052Z,19.92
2019-01-14T13:13:38.267Z,22.35
2019-01-14T13:16:09.484Z,16.87
2019-01-14T13:18:40.639Z,16.95
2019-01-14T13:21:11.908Z,17.32
2019-01-14T13:23:43.305Z,17.42
2019-01-14T13:26:14.606Z,31.10
2019-01-14T13:28:45.770Z,26.75
2019-01-14T13:31:17.146Z,20.70
2019-01-14T13:33:48.457Z,19.85
2019-01-14T13:36:19.792Z,21.90
2019-01-14T13:38:50.955Z,20.10
2019-01-14T13:41:22.389Z,17.82
2019-01-14T13:43:53.683Z,18.55
2019-01-14T13:46:26.359Z,16.85
2019-01-14T13:48:57.881Z,19.50
2019-01-14T13:51:30.290Z,13.85
2019-01-14T13:54:01.921Z,12.43
2019-01-14T14:04:50.578Z,11.08
2019-01-14T14:07:22.082Z,11.93
2019-01-14T14:09:53.666Z,11.88
2019-01-14T14:12:25.306Z,11.73
2019-01-14T14:14:56.543Z,12.15
2019-01-14T14:17:27.947Z,12.50
2019-01-14T14:19:59.296Z,11.95
2019-01-14T14:22:30.441Z,12.10
2019-01-14T14:25:01.739Z,11.90
2019-01-14T14:27:33.147Z,11.53
2019-01-14T14:30:07.451Z,12.00
2019-01-14T14:32:38.712Z,12.30
2019-01-14T14:35:10.051Z,12.63
2019-01-14T14:37:41.608Z,13.60
2019-01-14T14:40:13.288Z,13.38
2019-01-14T14:42:44.744Z,13.18
2019-01-14T14:45:16.371Z,14.07
2019-01-14T14:47:47.919Z,13.55
2019-01-14T14:50:19.394Z,12.58
2019-01-14T14:52:50.952Z,13.78
2019-01-14T14:55:23.249Z,12.28
2019-01-14T14:57:54.975Z,11.73
2019-01-14T15:00:26.485Z,10.53
2019-01-14T15:02:57.963Z,11.93
2019-01-14T15:05:29.301Z,11.68
2019-01-14T15:08:00.582Z,11.28
2019-01-14T15:10:32.013Z,12.98
2019-01-14T15:13:03.265Z,12.60
2019-01-14T15:15:34.595Z,12.10
2019-01-14T15:18:06.466Z,12.53
2019-01-14T15:20:37.941Z,12.82
2019-01-14T15:23:09.108Z,11.05
2019-01-14T15:25:40.538Z,10.65
2019-01-14T15:28:11.644Z,10.18
2019-01-14T15:30:43.083Z,10.15
2019-01-14T15:33:14.473Z,11.78
2019-01-14T15:35:45.600Z,11.70
2019-01-14T15:38:16.914Z,11.43
2019-01-14T15:40:48.391Z,10.98
2019-01-14T15:43:19.508Z,10.78
2019-01-14T15:45:50.685Z,10.05
2019-01-14T15:48:21.912Z,11.43
2019-01-14T15:50:53.239Z,11.08
2019-01-14T15:53:24.371Z,12.13
2019-01-14T15:55:55.787Z,12.13
2019-01-14T15:58:27.279Z,11.88
2019-01-14T16:00:58.856Z,11.20
2019-01-14T16:03:30.297Z,11.45
2019-01-14T16:06:01.629Z,11.20
2019-01-14T16:08:32.687Z,11.53
2019-01-14T16:11:04.096Z,11.15
2019-01-14T16:13:35.447Z,12.43
2019-01-14T16:16:06.706Z,12.30
2019-01-14T16:18:38.087Z,12.43
2019-01-14T16:21:09.461Z,13.32
2019-01-14T16:23:40.663Z,14.33
2019-01-14T16:26:11.846Z,13.75
2019-01-14T16:28:42.918Z,14.18
2019-01-14T16:31:14.367Z,14.83
2019-01-14T16:33:45.557Z,19.42
2019-01-14T16:36:16.658Z,20.68
2019-01-14T16:38:47.950Z,29.63
2019-01-14T16:41:19.382Z,27.15
2019-01-14T16:43:50.585Z,22.82
2019-01-14T16:46:21.922Z,21.68
2019-01-14T16:48:53.345Z,21.68
2019-01-14T16:51:24.839Z,23.22
2019-01-14T16:53:57.191Z,23.83
2019-01-14T16:56:28.554Z,21.90
2019-01-14T16:58:59.799Z,22.45
2019-01-14T17:01:30.976Z,20.52
2019-01-14T17:04:02.272Z,20.62
2019-01-14T17:06:33.741Z,19.70
2019-01-14T17:09:08.397Z,20.17
2019-01-14T17:11:39.760Z,20.40
2019-01-14T17:14:11.206Z,20.40
2019-01-14T17:16:42.586Z,20.62
2019-01-14T17:19:13.863Z,19.70
2019-01-14T17:21:45.522Z,20.82
2019-01-14T17:24:17.012Z,21.30
2019-01-14T17:26:48.322Z,33.90
2019-01-14T17:29:19.642Z,35.65
2019-01-14T17:31:50.958Z,39.45
2019-01-14T17:34:22.220Z,40.60
2019-01-14T17:36:53.719Z,38.70
2019-01-14T17:39:25.014Z,44.18
2019-01-14T17:41:56.773Z,45.90
2019-01-14T17:44:27.961Z,45.20
2019-01-14T17:46:59.330Z,45.80
2019-01-14T17:49:30.660Z,46.08
2019-01-14T17:52:02.100Z,47.30
2019-01-14T17:54:33.206Z,45.23
2019-01-14T17:57:04.512Z,45.05
2019-01-14T17:59:35.869Z,49.25
2019-01-14T18:02:07.199Z,48.98
2019-01-14T18:04:38.515Z,44.08
2019-01-14T18:07:09.801Z,45.73
2019-01-14T18:09:40.945Z,40.45
2019-01-14T18:12:12.340Z,40.65
2019-01-14T18:14:43.745Z,39.05
2019-01-14T18:17:14.975Z,36.65
2019-01-14T18:19:46.263Z,37.40
2019-01-14T18:22:17.564Z,36.10
2019-01-14T18:24:49.002Z,38.08
2019-01-14T18:27:20.422Z,35.68
2019-01-14T18:29:51.963Z,36.38
2019-01-14T18:32:23.482Z,43.33
2019-01-14T18:34:54.956Z,36.85
2019-01-14T18:37:26.553Z,41.63
2019-01-14T18:39:58.755Z,40.10
2019-01-14T18:42:30.063Z,38.45
2019-01-14T18:45:01.119Z,36.45
2019-01-14T18:47:32.494Z,35.75
2019-01-14T18:50:03.821Z,39.90
2019-01-14T18:52:34.938Z,41.10
2019-01-14T18:55:06.703Z,40.20
2019-01-14T18:57:38.000Z,40.38
2019-01-14T19:00:12.994Z,38.67
2019-01-14T19:02:44.771Z,29.37
2019-01-14T19:05:16.384Z,25.08
2019-01-14T19:07:47.980Z,19.62
2019-01-14T19:10:19.275Z,16.85
2019-01-14T19:12:50.885Z,14.70
2019-01-14T19:15:22.925Z,47.10
2019-01-14T19:17:54.834Z,67.12
2019-01-14T19:20:27.968Z,47.65
2019-01-14T19:22:59.090Z,39.05
2019-01-14T19:25:30.704Z,33.00
2019-01-14T19:28:02.269Z,21.85
2019-01-14T19:30:33.552Z,15.08
2019-01-14T19:33:05.037Z,10.65
2019-01-14T19:35:36.291Z,9.75
2019-01-14T19:38:07.971Z,10.03
2019-01-14T19:40:39.180Z,8.60
2019-01-14T19:43:10.750Z,10.05
2019-01-14T19:45:49.536Z,10.25
2019-01-14T19:48:15.290Z,14.28
2019-01-14T19:50:46.705Z,9.80
2019-01-14T19:53:18.044Z,9.23
2019-01-14T19:55:49.329Z,10.05
2019-01-14T19:58:20.990Z,9.85
2019-01-14T20:00:52.154Z,9.00
2019-01-14T20:03:23.577Z,8.20
2019-01-14T20:05:55.125Z,7.70
2019-01-14T20:08:26.532Z,7.40
2019-01-14T20:10:57.738Z,7.87
2019-01-14T20:13:29.209Z,7.58
2019-01-14T20:16:00.511Z,6.75
2019-01-14T20:18:32.018Z,7.67
2019-01-14T20:21:03.225Z,8.48
2019-01-14T20:23:34.490Z,8.63
2019-01-14T20:26:05.783Z,7.22
2019-01-14T20:28:36.941Z,7.60
2019-01-14T20:31:08.016Z,8.53
2019-01-14T20:33:39.198Z,9.45
2019-01-14T20:36:10.274Z,11.43
2019-01-14T20:38:41.528Z,10.08
2019-01-14T20:41:16.414Z,9.23
2019-01-14T20:43:45.721Z,8.53
2019-01-14T20:46:16.967Z,8.48
2019-01-14T20:48:48.265Z,8.95
2019-01-14T20:51:19.410Z,8.65
2019-01-14T20:53:50.790Z,9.50
2019-01-14T20:56:22.150Z,8.40
2019-01-14T20:58:53.428Z,6.83
2019-01-14T21:01:24.745Z,6.58
2019-01-14T21:03:56.348Z,7.20
2019-01-14T21:06:27.752Z,7.53
2019-01-14T21:08:59.007Z,7.28
2019-01-14T21:11:34.026Z,7.97
2019-01-14T21:14:05.518Z,7.17
2019-01-14T21:16:42.645Z,7.65
2019-01-14T21:20:04.675Z,8.03
2019-01-14T21:23:13.794Z,7.78
2019-01-14T21:25:50.335Z,7.40
2019-01-14T21:28:41.049Z,6.90
2019-01-14T21:31:31.876Z,5.97
2019-01-14T21:34:22.211Z,6.25
2019-01-14T21:37:16.636Z,6.08
2019-01-14T21:40:09.297Z,5.50
2019-01-14T21:43:00.096Z,5.20
2019-01-14T21:45:32.295Z,5.08
2019-01-14T21:48:01.535Z,5.65
2019-01-14T21:50:32.952Z,5.25
2019-01-14T21:53:04.553Z,5.60
2019-01-14T21:55:35.990Z,5.22
2019-01-14T21:58:07.280Z,5.90
2019-01-14T22:00:38.813Z,6.15
2019-01-14T22:03:10.138Z,5.47
2019-01-14T22:05:41.376Z,5.20
2019-01-14T22:08:12.762Z,5.40
2019-01-14T22:10:43.844Z,10.13
2019-01-14T22:13:14.909Z,7.97
2019-01-14T22:16:34.629Z,7.45
2019-01-14T22:19:57.169Z,6.15
2019-01-14T22:23:17.361Z,5.72
2019-01-14T22:26:16.412Z,5.55
2019-01-14T22:29:15.001Z,5.28
2019-01-14T22:32:07.954Z,4.78
2019-01-14T22:34:41.366Z,4.60
2019-01-14T22:37:12.745Z,4.67
2019-01-14T22:39:43.854Z,4.47
2019-01-14T22:42:14.937Z,4.60
2019-01-14T22:44:46.259Z,4.83
2019-01-14T22:47:17.378Z,4.55
2019-01-14T22:49:48.461Z,4.20
2019-01-14T22:52:19.861Z,4.75
2019-01-14T22:54:51.079Z,4.78
2019-01-14T22:57:22.454Z,4.33
2019-01-14T22:59:53.708Z,4.67
2019-01-14T23:02:24.970Z,3.90
2019-01-14T23:04:56.401Z,4.00
2019-01-14T23:07:27.479Z,3.85
2019-01-14T23:09:58.736Z,4.12
2019-01-14T23:12:29.797Z,4.70
2019-01-14T23:15:00.834Z,4.67
2019-01-14T23:17:33.549Z,3.85
2019-01-14T23:20:05.733Z,3.95
2019-01-14T23:22:38.134Z,3.17
2019-01-14T23:25:09.578Z,3.83
2019-01-14T23:27:40.866Z,3.27
2019-01-14T23:30:12.325Z,3.77
2019-01-14T23:32:44.022Z,4.00
2019-01-14T23:35:15.269Z,3.33
2019-01-14T23:37:46.437Z,4.30
2019-01-14T23:40:17.940Z,4.22
2019-01-14T23:42:49.137Z,4.30
2019-01-14T23:45:20.513Z,3.83
2019-01-14T23:47:52.038Z,3.30
2019-01-14T23:50:23.344Z,3.20
2019-01-14T23:52:54.834Z,3.87
2019-01-14T23:55:26.228Z,3.80
2019-01-14T23:57:57.696Z,3.67
